createdAt,value
2022-09-25T00:01:07.948Z,94608.09
2022-09-25T00:04:16.731Z,94610.63
2022-09-25T00:07:25.757Z,94609.44
2022-09-25T00:10:34.958Z,94604.13
2022-09-25T00:13:47.116Z,94600.03
2022-09-25T00:16:55.521Z,94598.00
2022-09-25T00:20:04.318Z,94594.97
2022-09-25T00:23:12.631Z,94596.41
2022-09-25T00:26:20.978Z,94605.22
2022-09-25T00:29:30.948Z,94601.72
2022-09-25T00:32:39.403Z,94600.91
2022-09-25T00:35:47.986Z,94597.63
2022-09-25T00:38:56.504Z,94591.47
2022-09-25T00:42:05.541Z,94591.09
2022-09-25T00:45:24.210Z,94589.06
2022-09-25T00:48:32.965Z,94593.13
2022-09-25T00:51:53.906Z,94589.03
2022-09-25T00:55:08.296Z,94590.06
2022-09-25T00:58:22.263Z,94592.53
2022-09-25T01:01:32.413Z,94597.66
2022-09-25T01:04:43.400Z,94593.94
2022-09-25T01:07:53.861Z,94588.22
2022-09-25T01:11:02.733Z,94584.34
2022-09-25T01:14:11.519Z,94597.22
2022-09-25T01:17:29.932Z,94590.25
2022-09-25T01:21:11.456Z,94580.47
2022-09-25T01:24:51.806Z,94578.38
2022-09-25T01:28:26.952Z,94579.22
2022-09-25T01:31:47.693Z,94573.09
2022-09-25T01:35:02.809Z,94560.22
2022-09-25T01:38:23.516Z,94566.56
2022-09-25T01:41:45.573Z,94561.25
2022-09-25T01:45:00.567Z,94569.63
2022-09-25T01:48:14.537Z,94563.91
2022-09-25T01:51:28.577Z,94561.63
2022-09-25T01:54:42.785Z,94560.00
2022-09-25T01:58:00.476Z,94555.09
2022-09-25T02:01:23.169Z,94561.03
2022-09-25T02:04:40.533Z,94575.13
2022-09-25T02:07:57.128Z,94573.09
2022-09-25T02:11:07.901Z,94577.16
2022-09-25T02:14:23.741Z,94571.03
2022-09-25T02:18:01.296Z,94575.97
2022-09-25T02:21:22.185Z,94572.28
2022-09-25T02:24:40.427Z,94569.00
2022-09-25T02:27:48.898Z,94571.88
2022-09-25T02:31:01.897Z,94571.25
2022-09-25T02:34:15.110Z,94570.03
2022-09-25T02:37:25.236Z,94562.25
2022-09-25T02:40:45.810Z,94565.94
2022-09-25T02:44:08.608Z,94567.78
2022-09-25T02:47:35.581Z,94560.03
2022-09-25T02:50:55.716Z,94553.66
2022-09-25T02:54:17.543Z,94556.31
2022-09-25T02:57:38.077Z,94559.19
2022-09-25T03:00:51.645Z,94552.25
2022-09-25T03:04:03.051Z,94545.28
2022-09-25T03:07:12.245Z,94543.88
2022-09-25T03:10:22.913Z,94537.72
2022-09-25T03:13:32.025Z,94539.97
2022-09-25T03:16:47.611Z,94532.44
2022-09-25T03:19:56.944Z,94543.66
2022-09-25T03:23:05.499Z,94537.13
2022-09-25T03:26:15.389Z,94531.38
2022-09-25T03:29:23.813Z,94515.63
2022-09-25T03:32:31.977Z,94528.09
2022-09-25T03:35:40.851Z,94530.56
2022-09-25T03:38:52.014Z,94531.38
2022-09-25T03:42:01.596Z,94535.44
2022-09-25T03:45:11.558Z,94530.97
2022-09-25T03:48:19.925Z,94537.53
2022-09-25T03:51:30.720Z,94536.50
2022-09-25T03:54:38.895Z,94538.31
2022-09-25T03:57:48.859Z,94529.56
2022-09-25T04:00:58.485Z,94522.41
2022-09-25T04:04:06.646Z,94525.06
2022-09-25T04:07:16.685Z,94524.03
2022-09-25T04:10:25.041Z,94518.91
2022-09-25T04:13:37.336Z,94515.22
2022-09-25T04:16:47.195Z,94507.22
2022-09-25T04:19:55.363Z,94508.88
2022-09-25T04:23:03.485Z,94515.44
2022-09-25T04:26:11.841Z,94517.84
2022-09-25T04:29:22.051Z,94515.41
2022-09-25T04:32:48.007Z,94516.63
2022-09-25T04:35:57.136Z,94516.00
2022-09-25T04:39:05.465Z,94508.47
2022-09-25T04:42:13.819Z,94504.56
2022-09-25T04:45:23.403Z,94510.72
2022-09-25T04:48:31.886Z,94509.50
2022-09-25T04:51:41.408Z,94519.28
2022-09-25T04:54:50.142Z,94526.66
2022-09-25T04:58:00.810Z,94523.19
2022-09-25T05:01:11.406Z,94525.25
2022-09-25T05:04:20.233Z,94523.59
2022-09-25T05:07:28.530Z,94529.75
2022-09-25T05:10:39.642Z,94524.78
2022-09-25T05:13:51.639Z,94531.75
2022-09-25T05:17:01.423Z,94533.00
2022-09-25T05:20:10.891Z,94532.78
2022-09-25T05:23:19.015Z,94526.00
2022-09-25T05:26:29.685Z,94533.81
2022-09-25T05:29:39.883Z,94539.75
2022-09-25T05:32:53.950Z,94529.69
2022-09-25T05:36:03.666Z,94526.88
2022-09-25T05:39:14.581Z,94528.72
2022-09-25T05:42:22.794Z,94529.34
2022-09-25T05:45:30.944Z,94532.59
2022-09-25T05:48:41.262Z,94531.38
2022-09-25T05:51:49.729Z,94536.69
2022-09-25T05:54:57.868Z,94529.28
2022-09-25T05:58:06.387Z,94531.75
2022-09-25T06:01:14.708Z,94526.81
2022-09-25T06:04:25.042Z,94524.72
2022-09-25T06:07:33.212Z,94527.56
2022-09-25T06:10:42.007Z,94515.66
2022-09-25T06:13:54.439Z,94523.00
2022-09-25T06:17:03.037Z,94529.31
2022-09-25T06:20:16.175Z,94523.09
2022-09-25T06:23:24.709Z,94527.78
2022-09-25T06:26:35.338Z,94526.34
2022-09-25T06:29:43.659Z,94526.19
2022-09-25T06:32:58.578Z,94530.25
2022-09-25T06:36:08.561Z,94523.03
2022-09-25T06:39:18.992Z,94527.75
2022-09-25T06:42:28.432Z,94529.13
2022-09-25T06:45:39.434Z,94532.09
2022-09-25T06:48:54.204Z,94527.38
2022-09-25T06:52:04.413Z,94527.91
2022-09-25T06:55:18.158Z,94533.75
2022-09-25T06:58:30.939Z,94542.25
2022-09-25T07:01:39.369Z,94534.72
2022-09-25T07:04:46.600Z,94532.94
2022-09-25T07:07:56.985Z,94526.56
2022-09-25T07:11:06.020Z,94520.03
2022-09-25T07:14:14.481Z,94527.09
2022-09-25T07:17:22.594Z,94523.00
2022-09-25T07:20:32.319Z,94518.09
2022-09-25T07:23:42.868Z,94521.03
2022-09-25T07:26:52.742Z,94520.34
2022-09-25T07:30:02.387Z,94521.56
2022-09-25T07:33:11.723Z,94513.88
2022-09-25T07:36:20.249Z,94518.34
2022-09-25T07:39:29.692Z,94513.84
2022-09-25T07:42:37.843Z,94515.09
2022-09-25T07:45:53.753Z,94523.69
2022-09-25T07:49:02.213Z,94516.53
2022-09-25T07:52:10.968Z,94523.72
2022-09-25T07:55:20.690Z,94526.94
2022-09-25T07:58:30.155Z,94524.31
2022-09-25T08:01:43.680Z,94526.41
2022-09-25T08:04:54.581Z,94520.84
2022-09-25T08:08:03.979Z,94527.06
2022-09-25T08:11:17.514Z,94527.03
2022-09-25T08:14:27.182Z,94518.69
2022-09-25T08:17:37.004Z,94528.78
2022-09-25T08:20:47.428Z,94522.91
2022-09-25T08:23:58.404Z,94514.59
2022-09-25T08:27:08.492Z,94519.81
2022-09-25T08:30:17.563Z,94516.81
2022-09-25T08:33:25.837Z,94522.84
2022-09-25T08:36:34.333Z,94520.00
2022-09-25T08:39:42.779Z,94524.66
2022-09-25T08:42:56.820Z,94521.44
2022-09-25T08:46:32.621Z,94515.06
2022-09-25T08:49:49.530Z,94519.97
2022-09-25T08:53:08.748Z,94520.66
2022-09-25T08:56:21.244Z,94520.41
2022-09-25T08:59:38.683Z,94517.38
2022-09-25T09:02:54.125Z,94513.59
2022-09-25T09:06:06.975Z,94512.38
2022-09-25T09:09:23.936Z,94518.59
2022-09-25T09:12:41.203Z,94523.44
2022-09-25T09:15:58.456Z,94523.88
2022-09-25T09:19:09.011Z,94518.41
2022-09-25T09:22:27.611Z,94520.19
2022-09-25T09:25:46.174Z,94516.44
2022-09-25T09:29:26.100Z,94517.50
2022-09-25T09:33:01.899Z,94520.75
2022-09-25T09:36:21.454Z,94519.28
2022-09-25T09:39:38.284Z,94516.47
2022-09-25T09:42:57.524Z,94509.50
2022-09-25T09:46:19.539Z,94517.72
2022-09-25T09:49:38.199Z,94508.41
2022-09-25T09:52:51.728Z,94509.34
2022-09-25T09:56:09.232Z,94508.25
2022-09-25T09:59:22.777Z,94505.00
2022-09-25T10:02:40.875Z,94506.00
2022-09-25T10:05:57.735Z,94510.53
2022-09-25T10:09:06.882Z,94499.34
2022-09-25T10:12:28.865Z,94496.72
2022-09-25T10:15:46.240Z,94505.00
2022-09-25T10:19:04.136Z,94506.09
2022-09-25T10:22:18.222Z,94507.66
2022-09-25T10:25:39.941Z,94494.63
2022-09-25T10:28:48.097Z,94497.81
2022-09-25T10:32:02.362Z,94507.06
2022-09-25T10:35:17.779Z,94501.16
2022-09-25T10:38:52.379Z,94500.34
2022-09-25T10:42:33.743Z,94500.06
2022-09-25T10:45:42.523Z,94511.25
2022-09-25T10:49:32.307Z,94511.31
2022-09-25T10:52:51.327Z,94502.25
2022-09-25T10:56:11.161Z,94504.25
2022-09-25T10:59:23.285Z,94505.22
2022-09-25T11:02:39.143Z,94496.50
2022-09-25T11:05:54.712Z,94495.69
2022-09-25T11:09:15.015Z,94493.00
2022-09-25T11:12:29.390Z,94491.31
2022-09-25T11:15:40.213Z,94489.19
2022-09-25T11:18:52.506Z,94490.59
2022-09-25T11:22:14.369Z,94485.41
2022-09-25T11:25:34.181Z,94487.19
2022-09-25T11:28:52.761Z,94482.41
2022-09-25T11:32:13.633Z,94475.31
2022-09-25T11:35:46.984Z,94480.13
2022-09-25T11:39:16.559Z,94477.19
2022-09-25T11:42:34.383Z,94472.84
2022-09-25T11:45:52.510Z,94456.34
2022-09-25T11:49:16.228Z,94463.09
2022-09-25T11:52:52.384Z,94461.13
2022-09-25T11:56:27.670Z,94448.47
2022-09-25T12:00:03.807Z,94443.34
2022-09-25T12:03:35.558Z,94446.34
2022-09-25T12:07:05.878Z,94444.91
2022-09-25T12:10:30.164Z,94437.47
2022-09-25T12:13:51.194Z,94439.16
2022-09-25T12:17:10.364Z,94430.38
2022-09-25T12:20:34.111Z,94429.66
2022-09-25T12:23:59.098Z,94443.66
2022-09-25T12:27:23.514Z,94435.44
2022-09-25T12:30:57.275Z,94438.34
2022-09-25T12:34:26.851Z,94429.88
2022-09-25T12:37:44.834Z,94422.13
2022-09-25T12:41:07.389Z,94416.97
2022-09-25T12:44:27.640Z,94414.78
2022-09-25T12:47:42.147Z,94413.69
2022-09-25T12:51:05.464Z,94414.38
2022-09-25T12:54:27.179Z,94407.03
2022-09-25T12:57:48.052Z,94407.88
2022-09-25T13:01:07.853Z,94406.66
2022-09-25T13:04:44.673Z,94405.50
2022-09-25T13:08:14.018Z,94408.72
2022-09-25T13:11:44.285Z,94406.34
2022-09-25T13:14:59.435Z,94399.53
2022-09-25T13:18:17.572Z,94397.53
2022-09-25T13:21:32.550Z,94403.44
2022-09-25T13:24:47.184Z,94407.75
2022-09-25T13:28:09.083Z,94408.53
2022-09-25T13:31:25.938Z,94408.63
2022-09-25T13:34:41.133Z,94407.22
2022-09-25T13:37:52.096Z,94414.81
2022-09-25T13:40:59.448Z,94417.06
2022-09-25T13:45:06.276Z,94423.34
2022-09-25T13:48:36.126Z,94421.94
2022-09-25T13:51:46.731Z,94421.03
2022-09-25T13:55:21.094Z,94425.91
2022-09-25T13:58:32.257Z,94428.00
2022-09-25T14:01:44.479Z,94426.28
2022-09-25T14:04:53.169Z,94434.41
2022-09-25T14:08:08.707Z,94428.69
2022-09-25T14:11:24.075Z,94431.97
2022-09-25T14:14:52.526Z,94426.16
2022-09-25T14:18:08.458Z,94429.88
2022-09-25T14:21:20.879Z,94431.25
2022-09-25T14:24:31.865Z,94418.44
2022-09-25T14:27:41.057Z,94415.44
2022-09-25T14:30:54.966Z,94414.34
2022-09-25T14:34:30.400Z,94420.81
2022-09-25T14:41:50.224Z,94420.84
2022-09-25T14:45:32.317Z,94412.16
2022-09-25T14:48:47.203Z,94416.34
2022-09-25T14:52:03.774Z,94411.75
2022-09-25T14:55:21.242Z,94419.41
2022-09-25T14:58:33.815Z,94431.75
2022-09-25T15:01:50.635Z,94422.09
2022-09-25T15:05:01.609Z,94421.72
2022-09-25T15:08:24.344Z,94415.66
2022-09-25T15:11:43.426Z,94422.19
2022-09-25T15:15:07.800Z,94426.84
2022-09-25T15:18:15.913Z,94430.34
2022-09-25T15:21:33.072Z,94431.13
2022-09-25T15:24:52.620Z,94438.69
2022-09-25T15:28:01.946Z,94433.00
2022-09-25T15:31:11.005Z,94426.03
2022-09-25T15:34:25.492Z,94421.63
2022-09-25T15:37:33.881Z,94410.81
2022-09-25T15:40:44.249Z,94412.44
2022-09-25T15:43:53.496Z,94421.13
2022-09-25T15:47:02.919Z,94421.84
2022-09-25T15:50:23.968Z,94424.38
2022-09-25T15:53:36.121Z,94435.31
2022-09-25T15:56:53.489Z,94423.81
2022-09-25T16:00:27.501Z,94417.88
2022-09-25T16:03:53.597Z,94419.16
2022-09-25T16:07:02.859Z,94430.47
2022-09-25T16:10:33.931Z,94431.94
2022-09-25T16:13:48.790Z,94429.66
2022-09-25T16:17:00.060Z,94430.44
2022-09-25T16:20:31.496Z,94429.63
2022-09-25T16:23:45.189Z,94434.38
2022-09-25T16:26:58.084Z,94439.00
2022-09-25T16:30:17.678Z,94432.97
2022-09-25T16:33:32.192Z,94440.56
2022-09-25T16:36:45.100Z,94436.69
2022-09-25T16:40:25.306Z,94444.38
2022-09-25T16:43:36.137Z,94433.34
2022-09-25T16:46:52.504Z,94435.88
2022-09-25T16:50:00.917Z,94425.56
2022-09-25T16:53:10.063Z,94430.19
2022-09-25T16:56:25.769Z,94433.53
2022-09-25T16:59:34.252Z,94429.91
2022-09-25T17:02:47.214Z,94432.63
2022-09-25T17:05:56.524Z,94433.22
2022-09-25T17:09:11.956Z,94431.91
2022-09-25T17:12:25.255Z,94426.75
2022-09-25T17:15:41.859Z,94426.31
2022-09-25T17:18:53.541Z,94433.34
2022-09-25T17:22:04.740Z,94440.69
2022-09-25T17:25:39.409Z,94432.56
2022-09-25T17:28:47.670Z,94433.38
2022-09-25T17:31:56.314Z,94425.94
2022-09-25T17:35:32.359Z,94437.16
2022-09-25T17:38:41.720Z,94440.13
2022-09-25T17:41:50.337Z,94442.31
2022-09-25T17:44:59.051Z,94445.00
2022-09-25T17:48:07.349Z,94447.59
2022-09-25T17:51:21.021Z,94443.34
2022-09-25T17:54:29.934Z,94448.84
2022-09-25T17:57:38.633Z,94442.78
2022-09-25T18:00:47.024Z,94449.66
2022-09-25T18:03:58.161Z,94445.19
2022-09-25T18:07:08.194Z,94445.41
2022-09-25T18:10:18.101Z,94454.66
2022-09-25T18:13:26.917Z,94454.84
2022-09-25T18:16:35.341Z,94459.91
2022-09-25T18:20:16.824Z,94458.31
2022-09-25T18:23:26.992Z,94461.25
2022-09-25T18:26:36.066Z,94465.66
2022-09-25T18:29:46.278Z,94469.41
2022-09-25T18:32:54.575Z,94466.69
2022-09-25T18:36:03.870Z,94474.34
2022-09-25T18:39:17.493Z,94471.19
2022-09-25T18:42:28.399Z,94465.84
2022-09-25T18:45:36.912Z,94473.97
2022-09-25T18:48:47.789Z,94474.84
2022-09-25T18:51:56.876Z,94468.53
2022-09-25T18:55:08.188Z,94469.94
2022-09-25T18:58:16.449Z,94477.28
2022-09-25T19:01:25.202Z,94474.50
2022-09-25T19:04:37.626Z,94475.72
2022-09-25T19:07:48.999Z,94482.34
2022-09-25T19:11:00.466Z,94488.50
2022-09-25T19:14:10.442Z,94472.69
2022-09-25T19:17:20.647Z,94471.84
2022-09-25T19:20:29.320Z,94474.91
2022-09-25T19:23:38.783Z,94479.81
2022-09-25T19:26:49.211Z,94483.94
2022-09-25T19:29:58.396Z,94482.56
2022-09-25T19:33:06.733Z,94487.47
2022-09-25T19:36:19.730Z,94481.31
2022-09-25T19:39:28.865Z,94489.06
2022-09-25T19:42:38.798Z,94486.84
2022-09-25T19:45:52.061Z,94496.06
2022-09-25T19:49:01.141Z,94493.66
2022-09-25T19:52:09.784Z,94500.53
2022-09-25T19:55:18.584Z,94500.53
2022-09-25T19:58:36.257Z,94497.28
2022-09-25T20:01:48.010Z,94499.94
2022-09-25T20:04:56.820Z,94500.94
2022-09-25T20:08:05.248Z,94495.09
2022-09-25T20:11:18.608Z,94487.25
2022-09-25T20:14:30.376Z,94498.06
2022-09-25T20:17:38.855Z,94502.72
2022-09-25T20:20:47.239Z,94503.38
2022-09-25T20:23:58.483Z,94507.94
2022-09-25T20:27:08.823Z,94504.69
2022-09-25T20:30:19.168Z,94502.84
2022-09-25T20:33:34.605Z,94507.06
2022-09-25T20:36:43.842Z,94509.34
2022-09-25T20:39:52.318Z,94509.66
2022-09-25T20:43:00.739Z,94517.31
2022-09-25T20:46:13.828Z,94518.69
2022-09-25T20:49:22.976Z,94515.44
2022-09-25T20:52:33.932Z,94512.19
2022-09-25T20:55:42.147Z,94509.34
2022-09-25T20:58:53.437Z,94500.69
2022-09-25T21:02:05.014Z,94502.97
2022-09-25T21:05:13.318Z,94497.91
2022-09-25T21:08:21.694Z,94505.03
2022-09-25T21:11:32.390Z,94500.19
2022-09-25T21:14:40.630Z,94498.34
2022-09-25T21:17:50.461Z,94500.56
2022-09-25T21:21:01.899Z,94492.16
2022-09-25T21:24:15.263Z,94492.63
2022-09-25T21:27:23.602Z,94503.56
2022-09-25T21:30:32.514Z,94497.50
2022-09-25T21:33:43.009Z,94499.53
2022-09-25T21:36:51.170Z,94496.22
2022-09-25T21:39:59.269Z,94494.56
2022-09-25T21:43:07.725Z,94497.47
2022-09-25T21:46:19.469Z,94498.31
2022-09-25T21:49:29.503Z,94508.16
2022-09-25T21:52:41.090Z,94493.59
2022-09-25T21:55:49.876Z,94497.97
2022-09-25T21:59:07.908Z,94499.81
2022-09-25T22:02:17.361Z,94493.31
2022-09-25T22:05:26.819Z,94494.75
2022-09-25T22:08:38.088Z,94495.13
2022-09-25T22:11:47.740Z,94498.66
2022-09-25T22:14:55.925Z,94493.94
2022-09-25T22:18:04.119Z,94497.25
2022-09-25T22:21:17.368Z,94495.44
2022-09-25T22:24:26.638Z,94493.94
2022-09-25T22:27:34.929Z,94486.59
2022-09-25T22:30:43.297Z,94491.94
2022-09-25T22:33:57.295Z,94498.75
2022-09-25T22:37:06.866Z,94495.44
2022-09-25T22:40:15.551Z,94502.13
2022-09-25T22:43:24.567Z,94495.22
2022-09-25T22:46:33.079Z,94496.03
2022-09-25T22:49:41.470Z,94492.75
2022-09-25T22:52:54.138Z,94493.63
2022-09-25T22:56:14.673Z,94483.53
2022-09-25T22:59:23.109Z,94497.72
2022-09-25T23:02:31.253Z,94494.66
2022-09-25T23:05:40.330Z,94494.91
2022-09-25T23:08:55.301Z,94478.78
2022-09-25T23:12:03.806Z,94480.22
2022-09-25T23:15:13.013Z,94480.25
2022-09-25T23:18:21.640Z,94481.09
2022-09-25T23:21:31.734Z,94476.81
2022-09-25T23:24:41.549Z,94470.63
2022-09-25T23:27:50.449Z,94472.53
2022-09-25T23:31:06.321Z,94476.06
2022-09-25T23:34:15.784Z,94471.72
2022-09-25T23:37:24.399Z,94462.41
2022-09-25T23:40:33.899Z,94467.34
2022-09-25T23:43:42.228Z,94468.13
2022-09-25T23:46:50.368Z,94464.59
2022-09-25T23:50:04.159Z,94461.56
2022-09-25T23:53:13.044Z,94462.41
2022-09-25T23:56:25.280Z,94461.56
2022-09-25T23:59:33.685Z,94456.69
